Antoine Wiels

Antoine Wiels

Statistiques 2026

  • Courses courues : 94
  • Nb de victoires : 24
  • Nb de places : 52
  • Écart gagnant : 2
  • Réussite à la gagne : 26%
  • Réussite à la place : 55%
Musique : 2a 0a 1a 3a 0a 3a Da 0a 3a 5a Da Da 7a Da 3a 7a Da 1a
DateRangCatégorieAlloc.Dist.HippodromeChevalRed. KmSpé.
31/07/25 2 Trot 20 000€ 2 725m Pornichet La Baule Kheops d'hameline 1'14"4 Attelé
06/08/25 2 Trot 22 000€ 2 950m Saint Malo Jadou du Lupin 1'15"0 Attelé lire

Jamais loin dans le parcours, a bien conclu sans pouvoir approcher le lauréat.

08/08/25 2 Trot 30 000€ 2 300m Chateaubriant Ilmat des Keches 1'12"6 Attelé
10/08/25 2 Mixte 24 000€ 3 175m La Roche Posay Jerenal d'hameline Attelé
15/08/25 2 Trot 13 000€ 2 150m Saint Malo Milord du Cherisay 1'17"6 Attelé
15/08/25 2 Trot 13 000€ 2 150m Saint Malo Myrtille du Lupin 1'17"7 Attelé
17/08/25 2 Trot 30 000€ 2 600m Le Mont Saint Michel Histoire du Lupin 1'14"4 Attelé
20/08/25 2 Trot 15 000€ 2 775m Les Sables D'Olonne Magicio Bello 1'16"9 Attelé
24/08/25 2 Trot 14 000€ 2 850m Laval Malin du Lupin 1'17"0 Attelé
27/08/25 2 Trot 27 000€ 2 650m Les Sables D'Olonne Kahia de la Croix 1'14"2 Attelé
05/09/25 2 Trot 15 000€ 2 850m Laval Magicio Bello 1'16"6 Attelé
07/09/25 2 Mixte 19 500€ 2 275m Craon Myrtille du Lupin 1'24"0 Attelé
10/09/25 2 Trot 23 000€ 2 900m Meslay Du Maine Kyria Bella 1'13"7 Attelé
15/09/25 2 Trot 24 000€ 2 850m Laval Jelenia Bella 1'14"8 Attelé
15/09/25 2 Trot 24 000€ 2 850m Laval Jadou du Lupin 1'14"1 Attelé lire

Un des animateurs, a bien tenu sa partie pour finir.

20/09/25 2 Trot 26 000€ 2 750m Pornichet La Baule Kassandra Wind 1'13"9 Attelé
20/09/25 2 Trot 20 000€ 2 725m Pornichet La Baule Melodica Bella 1'17"0 Attelé
25/09/25 2 Trot 21 000€ 2 850m Laval Latino du Lupin 1'16"2 Attelé
01/10/25 2 Trot 26 000€ 3 125m Angers Julia Bella 1'14"9 Attelé lire

Longtemps sur une quatrième ligne, est venue prendre la tête dans le dernier tournant, ne s'inclinant que pour finir.

03/10/25 2 Trot 41 000€ 2 700m Vincennes Jadou du Lupin 1'13"8 Attelé
05/10/25 2 Trot 14 500€ 2 825m Cordemais Mome du Lupin 1'16"8 Attelé
05/10/25 2 Trot 28 000€ 2 650m Cordemais Instinct Saint Bar 1'13"6 Attelé
12/10/25 2 Trot 35 000€ 2 675m Bordeaux Le Bouscat Kyria Bella 1'13"4 Attelé
17/10/25 2 Trot 21 000€ 3 025m Marseille Borely Melilot Bello 1'16"4 Attelé
17/10/25 2 Trot 23 000€ 3 000m Marseille Borely Lestancia Bella 1'14"0 Attelé
30/10/25 2 Trot 90 000€ 2 850m Vincennes Ino du Lupin 1'11"9 Attelé lire

Rapidement cinquième, a bien conclu pour arracher le premier accessit.

31/10/25 2 Trot 15 000€ 2 725m Pornichet La Baule Maflora Bella 1'17"1 Attelé
31/10/25 2 Trot 15 000€ 2 725m Pornichet La Baule Milord du Cherisay 1'18"7 Attelé
31/10/25 2 Trot 17 000€ 2 725m Pornichet La Baule King du Pressoir 1'16"7 Attelé
01/11/25 2 Trot 31 000€ 2 850m Laval Kelcanto Bello 1'13"8 Attelé
05/11/25 2 Trot 35 000€ 3 025m Nantes Kyria Bella 1'13"0 Attelé
09/11/25 2 Trot 62 000€ 2 650m La Rochelle Ino du Lupin 1'11"1 Attelé
12/11/25 2 Trot 21 000€ 2 550m Bordeaux Le Bouscat Kheops d'hameline 1'13"8 Attelé
15/11/25 2 Trot 30 000€ 2 850m Laval Jutonniere 1'13"5 Attelé lire

Une des animatrices, a bien tenu sa partie jusqu'à la fin.

15/11/25 2 Trot 35 000€ 2 875m Laval Lyriko Bello 1'12"7 Attelé
05/12/25 2 Trot 19 500€ 2 575m Saint Brieuc Miden de Fontaine 1'17"2 Attelé
08/12/25 2 Trot 26 000€ 3 150m Angers Jadou du Lupin 1'13"6 Attelé
12/12/25 2 Trot 17 500€ 2 700m Graignes Magie du Lupin 1'17"3 Attelé
12/12/25 2 Trot 30 000€ 2 725m Graignes Histoire du Lupin 1'14"2 Attelé
15/12/25 2 Trot 30 000€ 2 975m Le Mans Ilmat des Keches 1'13"8 Attelé
04/01/26 2 Trot 14 500€ 2 825m Cordemais Mome du Lupin 1'15"2 Attelé
11/01/26 2 Trot 75 000€ 2 100m Vincennes Ibiza Bella 1'10"7 Attelé lire

Très vite en bonne position, n'a pas été très chanceuse dans le dernier tournant avant de bien conclure.

17/01/26 2 Trot 90 000€ 2 875m Vincennes Ino du Lupin 1'12"0 Attelé lire

Attentiste à l'arrière-garde, a rejoint les animateurs au sommet de la montée sans avoir ses aises puis a fait figure de lauréat, ne s'inclinant que près du but.

01/02/26 2 Trot 18 500€ 2 725m Machecoul Jutonniere 1'13"8 Attelé
04/02/26 2 Trot 27 000€ 2 875m Laval Jadou du Lupin 1'13"2 Attelé
15/02/26 2 Trot 23 000€ 2 825m Pontchateau Jelenia Bella 1'17"3 Attelé
27/02/26 2 Trot 19 500€ 2 825m Cordemais Lady d'Idef 1'17"4 Attelé
27/02/26 2 Trot 33 000€ 2 825m Cordemais Jadou du Lupin 1'14"5 Attelé
01/03/26 2 Trot 30 000€ 2 825m Vire Jerenal d'hameline Attelé
06/03/26 2 Trot 19 500€ 2 800m Pontchateau Numero Uno 1'22"4 Attelé